createdAt,value
2019-03-16T00:00:26.051Z,99160.50
2019-03-16T00:00:58.181Z,99158.36
2019-03-16T00:01:29.535Z,99157.06
2019-03-16T00:02:00.785Z,99158.00
2019-03-16T00:02:31.987Z,99156.23
2019-03-16T00:03:03.190Z,99150.56
2019-03-16T00:03:34.400Z,99152.70
2019-03-16T00:04:05.607Z,99150.58
2019-03-16T00:04:36.803Z,99148.44
2019-03-16T00:05:07.996Z,99149.79
2019-03-16T00:05:39.194Z,99141.99
2019-03-16T00:06:10.409Z,99150.58
2019-03-16T00:06:41.648Z,99144.09
2019-03-16T00:07:12.856Z,99144.45
2019-03-16T00:07:44.072Z,99140.59
2019-03-16T00:08:15.277Z,99137.52
2019-03-16T00:08:46.468Z,99131.08
2019-03-16T00:09:17.735Z,99141.01
2019-03-16T00:09:48.970Z,99138.36
2019-03-16T00:10:20.172Z,99128.79
2019-03-16T00:10:51.369Z,99132.28
2019-03-16T00:11:22.590Z,99130.45
2019-03-16T00:11:53.873Z,99126.09
2019-03-16T00:12:25.091Z,99123.13
2019-03-16T00:12:56.282Z,99122.24
2019-03-16T00:13:27.545Z,99127.80
2019-03-16T00:13:58.710Z,99121.35
2019-03-16T00:14:29.918Z,99124.79
2019-03-16T00:15:01.109Z,99126.50
2019-03-16T00:15:32.306Z,99124.84
2019-03-16T00:16:03.507Z,99125.66
2019-03-16T00:16:34.720Z,99126.14
2019-03-16T00:17:05.977Z,99121.45
2019-03-16T00:17:37.195Z,99128.33
2019-03-16T00:18:08.388Z,99127.90
2019-03-16T00:18:39.586Z,99128.38
2019-03-16T00:19:10.784Z,99128.38
2019-03-16T00:19:41.980Z,99124.89
2019-03-16T00:20:13.173Z,99121.41
2019-03-16T00:20:44.385Z,99126.60
2019-03-16T00:21:15.590Z,99121.35
2019-03-16T00:21:46.825Z,99125.25
2019-03-16T00:22:18.056Z,99120.94
2019-03-16T00:22:49.263Z,99121.66
2019-03-16T00:23:20.456Z,99122.90
2019-03-16T00:23:51.654Z,99122.44
2019-03-16T00:24:22.875Z,99124.51
2019-03-16T00:24:54.077Z,99121.43
2019-03-16T00:25:25.475Z,99121.84
2019-03-16T00:25:56.685Z,99125.28
2019-03-16T00:26:27.915Z,99122.63
2019-03-16T00:26:59.106Z,99126.94
2019-03-16T00:27:30.377Z,99126.22
2019-03-16T00:28:01.591Z,99124.92
2019-03-16T00:28:32.800Z,99121.09
2019-03-16T00:29:04.005Z,99126.28
2019-03-16T00:29:35.217Z,99124.20
2019-03-16T00:30:06.410Z,99128.14
2019-03-16T00:30:37.612Z,99128.62
2019-03-16T00:31:08.807Z,99127.32
2019-03-16T00:31:39.997Z,99127.38
2019-03-16T00:32:13.684Z,99126.09
2019-03-16T00:32:44.176Z,99134.40
2019-03-16T00:33:15.398Z,99137.94
2019-03-16T00:33:46.592Z,99134.45
2019-03-16T00:34:17.829Z,99136.63
2019-03-16T00:34:49.017Z,99139.71
2019-03-16T00:35:20.218Z,99132.90
2019-03-16T00:35:51.411Z,99132.96
2019-03-16T00:36:22.658Z,99136.45
2019-03-16T00:36:53.866Z,99135.66
2019-03-16T00:37:25.097Z,99136.18
2019-03-16T00:37:56.306Z,99133.22
2019-03-16T00:38:27.510Z,99133.22
2019-03-16T00:38:58.717Z,99133.28
2019-03-16T00:39:29.955Z,99133.38
2019-03-16T00:40:01.156Z,99129.91
2019-03-16T00:40:32.354Z,99132.97
2019-03-16T00:41:03.954Z,99132.97
2019-03-16T00:41:35.144Z,99132.55
2019-03-16T00:42:06.345Z,99135.97
2019-03-16T00:42:37.536Z,99132.50
2019-03-16T00:43:08.750Z,99136.02
2019-03-16T00:43:39.938Z,99134.67
2019-03-16T00:44:11.178Z,99134.20
2019-03-16T00:44:42.379Z,99138.98
2019-03-16T00:45:13.587Z,99129.91
2019-03-16T00:45:44.776Z,99129.59
2019-03-16T00:46:15.987Z,99129.70
2019-03-16T00:46:47.216Z,99125.02
2019-03-16T00:47:18.410Z,99122.47
2019-03-16T00:47:49.602Z,99123.36
2019-03-16T00:48:20.783Z,99128.17
2019-03-16T00:48:51.976Z,99124.29
2019-03-16T00:49:23.227Z,99117.64
2019-03-16T00:49:54.442Z,99133.11
2019-03-16T00:50:25.700Z,99121.89
2019-03-16T00:50:56.919Z,99128.33
2019-03-16T00:51:28.130Z,99123.56
2019-03-16T00:51:59.326Z,99119.77
2019-03-16T00:52:30.511Z,99122.02
2019-03-16T00:53:01.742Z,99119.92
2019-03-16T00:53:32.951Z,99122.99
2019-03-16T00:54:04.145Z,99118.27
2019-03-16T00:54:35.387Z,99119.16
2019-03-16T00:55:06.623Z,99121.38
2019-03-16T00:55:37.798Z,99119.66
2019-03-16T00:56:08.994Z,99122.30
2019-03-16T00:56:40.194Z,99123.61
2019-03-16T00:57:11.406Z,99118.98
2019-03-16T00:57:42.590Z,99121.25
2019-03-16T00:58:13.803Z,99118.71
2019-03-16T00:58:45.016Z,99120.92
2019-03-16T00:59:16.223Z,99120.01
2019-03-16T00:59:47.463Z,99113.20
2019-03-16T01:00:18.674Z,99114.54
2019-03-16T01:00:49.878Z,99116.77
2019-03-16T01:01:21.077Z,99117.23
2019-03-16T01:01:52.285Z,99112.13
2019-03-16T01:02:27.254Z,99111.72
2019-03-16T01:02:56.405Z,99112.60
2019-03-16T01:03:27.612Z,99110.47
2019-03-16T01:03:58.807Z,99113.48
2019-03-16T01:04:30.096Z,99110.05
2019-03-16T01:05:01.358Z,99108.30
2019-03-16T01:05:32.577Z,99105.23
2019-03-16T01:06:03.785Z,99112.60
2019-03-16T01:06:35.359Z,99113.90
2019-03-16T01:07:06.584Z,99112.64
2019-03-16T01:07:37.774Z,99115.23
2019-03-16T01:08:08.991Z,99110.10
2019-03-16T01:08:40.239Z,99111.39
2019-03-16T01:09:11.453Z,99110.19
2019-03-16T01:09:43.687Z,99115.42
2019-03-16T01:10:15.128Z,99118.48
2019-03-16T01:10:46.343Z,99115.48
2019-03-16T01:11:17.551Z,99119.92
2019-03-16T01:11:48.739Z,99116.50
2019-03-16T01:12:19.982Z,99120.02
2019-03-16T01:12:51.168Z,99115.34
2019-03-16T01:13:22.370Z,99115.84
2019-03-16T01:13:54.535Z,99118.02
2019-03-16T01:14:25.777Z,99117.60
2019-03-16T01:14:56.981Z,99119.36
2019-03-16T01:15:28.188Z,99093.37
2019-03-16T01:15:59.395Z,99120.28
2019-03-16T01:16:30.586Z,99116.44
2019-03-16T01:17:02.253Z,99117.73
2019-03-16T01:17:33.500Z,99121.59
2019-03-16T01:18:04.697Z,99118.44
2019-03-16T01:18:35.892Z,99110.66
2019-03-16T01:19:07.117Z,99120.16
2019-03-16T01:19:38.313Z,99113.25
2019-03-16T01:20:09.511Z,99112.05
2019-03-16T01:20:40.761Z,99111.67
2019-03-16T01:21:11.977Z,99111.67
2019-03-16T01:21:43.185Z,99112.14
2019-03-16T01:22:14.398Z,99105.73
2019-03-16T01:22:45.600Z,99109.20
2019-03-16T01:23:17.813Z,99110.17
2019-03-16T01:23:49.161Z,99107.58
2019-03-16T01:24:20.353Z,99103.27
2019-03-16T01:24:51.536Z,99097.26
2019-03-16T01:25:22.748Z,99096.84
2019-03-16T01:25:53.955Z,99099.52
2019-03-16T01:26:25.196Z,99096.55
2019-03-16T01:26:56.401Z,99099.56
2019-03-16T01:27:27.602Z,99100.44
2019-03-16T01:27:58.808Z,99103.45
2019-03-16T01:28:30.066Z,99102.58
2019-03-16T01:29:01.330Z,99102.99
2019-03-16T01:29:32.568Z,99100.86
2019-03-16T01:30:03.762Z,99101.28
2019-03-16T01:30:34.969Z,99101.69
2019-03-16T01:31:06.171Z,99102.53
2019-03-16T01:31:37.383Z,99103.83
2019-03-16T01:32:08.594Z,99104.75
2019-03-16T01:32:41.059Z,99109.93
2019-03-16T01:33:12.377Z,99114.66
2019-03-16T01:33:43.674Z,99112.06
2019-03-16T01:34:14.880Z,99114.66
2019-03-16T01:34:46.111Z,99112.91
2019-03-16T01:35:17.297Z,99110.30
2019-03-16T01:35:48.501Z,99115.91
2019-03-16T01:36:19.700Z,99119.80
2019-03-16T01:36:50.899Z,99119.80
2019-03-16T01:37:22.105Z,99117.16
2019-03-16T01:37:53.303Z,99120.12
2019-03-16T01:38:24.549Z,99122.30
2019-03-16T01:38:55.793Z,99123.14
2019-03-16T01:39:27.044Z,99120.55
2019-03-16T01:39:58.260Z,99122.72
2019-03-16T01:40:29.465Z,99121.84
2019-03-16T01:41:00.668Z,99124.06
2019-03-16T01:41:31.887Z,99119.72
2019-03-16T01:42:03.087Z,99120.59
2019-03-16T01:42:34.275Z,99123.61
2019-03-16T01:43:05.539Z,99124.02
2019-03-16T01:43:36.736Z,99129.20
2019-03-16T01:44:07.979Z,99130.09
2019-03-16T01:44:40.109Z,99132.64
2019-03-16T01:45:11.476Z,99136.10
2019-03-16T01:45:42.664Z,99134.35
2019-03-16T01:46:13.879Z,99141.63
2019-03-16T01:46:45.088Z,99142.50
2019-03-16T01:47:16.300Z,99141.63
2019-03-16T01:47:47.506Z,99136.44
2019-03-16T01:48:18.719Z,99141.17
2019-03-16T01:48:49.926Z,99140.74
2019-03-16T01:49:21.119Z,99144.17
2019-03-16T01:49:52.306Z,99137.19
2019-03-16T01:50:23.557Z,99146.64
2019-03-16T01:50:54.801Z,99136.69
2019-03-16T01:51:26.003Z,99141.41
2019-03-16T01:51:57.206Z,99138.35
2019-03-16T01:52:28.418Z,99139.19
2019-03-16T01:52:59.609Z,99136.17
2019-03-16T01:53:30.801Z,99138.30
2019-03-16T01:54:02.008Z,99130.85
2019-03-16T01:54:33.261Z,99135.08
2019-03-16T01:55:04.440Z,99134.24
2019-03-16T01:55:35.630Z,99134.80
2019-03-16T01:56:06.814Z,99133.95
2019-03-16T01:56:38.020Z,99132.57
2019-03-16T01:57:09.219Z,99137.34
2019-03-16T01:57:40.405Z,99134.24
2019-03-16T01:58:11.601Z,99132.95
2019-03-16T01:58:42.800Z,99132.06
2019-03-16T01:59:14.012Z,99138.97
2019-03-16T01:59:45.257Z,99132.02
2019-03-16T02:00:16.460Z,99128.17
2019-03-16T02:00:47.674Z,99134.24
2019-03-16T02:01:18.883Z,99130.81
2019-03-16T02:01:50.090Z,99133.82
2019-03-16T02:02:21.309Z,99133.91
2019-03-16T02:02:55.732Z,99134.41
2019-03-16T02:03:25.498Z,99135.76
2019-03-16T02:03:56.690Z,99144.88
2019-03-16T02:04:27.892Z,99140.53
2019-03-16T02:04:59.124Z,99139.27
2019-03-16T02:05:30.352Z,99140.66
2019-03-16T02:06:01.529Z,99141.96
2019-03-16T02:06:32.734Z,99143.38
2019-03-16T02:07:03.931Z,99140.79
2019-03-16T02:07:35.139Z,99140.45
2019-03-16T02:08:06.342Z,99143.97
2019-03-16T02:08:37.574Z,99141.84
2019-03-16T02:09:08.772Z,99145.77
2019-03-16T02:09:40.061Z,99140.59
2019-03-16T02:10:11.308Z,99145.44
2019-03-16T02:10:42.509Z,99143.34
2019-03-16T02:11:13.709Z,99151.16
2019-03-16T02:11:44.917Z,99152.84
2019-03-16T02:12:16.126Z,99153.30
2019-03-16T02:12:47.315Z,99157.64
2019-03-16T02:13:18.508Z,99155.52
2019-03-16T02:13:49.715Z,99153.38
2019-03-16T02:14:20.911Z,99154.30
2019-03-16T02:14:52.126Z,99151.30
2019-03-16T02:15:23.364Z,99150.95
2019-03-16T02:15:54.567Z,99154.92
2019-03-16T02:16:25.769Z,99157.67
2019-03-16T02:16:56.958Z,99159.00
2019-03-16T02:17:28.155Z,99163.80
2019-03-16T02:17:59.356Z,99163.84
2019-03-16T02:18:30.558Z,99157.86
2019-03-16T02:19:01.764Z,99159.62
2019-03-16T02:19:35.839Z,99163.09
2019-03-16T02:20:05.883Z,99159.70
2019-03-16T02:20:37.148Z,99159.70
2019-03-16T02:21:08.387Z,99164.49
2019-03-16T02:21:39.587Z,99164.95
2019-03-16T02:22:10.845Z,99158.93
2019-03-16T02:22:42.046Z,99163.66
2019-03-16T02:23:13.263Z,99162.33
2019-03-16T02:23:44.523Z,99162.74
2019-03-16T02:24:15.735Z,99160.61
2019-03-16T02:24:46.940Z,99162.70
2019-03-16T02:25:18.139Z,99164.88
2019-03-16T02:25:49.378Z,99161.83
2019-03-16T02:26:20.633Z,99164.42
2019-03-16T02:26:51.838Z,99163.96
2019-03-16T02:27:23.039Z,99161.37
2019-03-16T02:27:54.249Z,99160.45
2019-03-16T02:28:25.447Z,99160.41
2019-03-16T02:28:56.663Z,99160.34
2019-03-16T02:29:27.892Z,99159.84
2019-03-16T02:29:59.107Z,99154.23
2019-03-16T02:30:30.315Z,99156.34
2019-03-16T02:31:01.519Z,99156.75
2019-03-16T02:31:32.738Z,99157.55
2019-03-16T02:32:03.994Z,99155.83
2019-03-16T02:32:35.197Z,99154.12
2019-03-16T02:33:12.994Z,99151.95
2019-03-16T02:33:39.336Z,99151.11
2019-03-16T02:34:10.531Z,99141.20
2019-03-16T02:34:41.753Z,99142.00
2019-03-16T02:35:12.960Z,99135.98
2019-03-16T02:35:44.319Z,99137.27
2019-03-16T02:36:15.543Z,99138.99
2019-03-16T02:36:46.746Z,99140.25
2019-03-16T02:37:17.943Z,99142.88
2019-03-16T02:37:49.134Z,99137.27
2019-03-16T02:38:20.346Z,99142.45
2019-03-16T02:38:51.602Z,99137.27
2019-03-16T02:39:22.801Z,99139.37
2019-03-16T02:39:54.033Z,99136.02
2019-03-16T02:40:25.236Z,99136.86
2019-03-16T02:40:56.425Z,99134.72
2019-03-16T02:41:27.644Z,99135.59
2019-03-16T02:41:58.878Z,99138.61
2019-03-16T02:42:30.063Z,99133.47
2019-03-16T02:43:01.262Z,99134.38
2019-03-16T02:43:32.503Z,99137.86
2019-03-16T02:44:03.705Z,99137.48
2019-03-16T02:44:34.904Z,99137.06
2019-03-16T02:45:06.149Z,99134.92
2019-03-16T02:45:37.352Z,99134.92
2019-03-16T02:46:08.633Z,99135.34
2019-03-16T02:46:39.851Z,99139.23
2019-03-16T02:47:11.952Z,99137.13
2019-03-16T02:47:43.157Z,99139.73
2019-03-16T02:48:14.361Z,99139.73
2019-03-16T02:48:45.570Z,99128.06
2019-03-16T02:49:16.766Z,99137.97
2019-03-16T02:49:48.007Z,99134.97
2019-03-16T02:50:19.240Z,99133.25
2019-03-16T02:50:50.441Z,99132.87
2019-03-16T02:51:21.635Z,99136.34
2019-03-16T02:51:52.842Z,99136.34
2019-03-16T02:52:24.051Z,99146.70
2019-03-16T02:52:55.251Z,99138.97
2019-03-16T02:53:26.461Z,99132.91
2019-03-16T02:53:57.771Z,99140.27
2019-03-16T02:54:28.975Z,99133.79
2019-03-16T02:55:00.589Z,99133.86
2019-03-16T02:55:31.950Z,99136.45
2019-03-16T02:56:03.152Z,99133.41
2019-03-16T02:56:34.405Z,99135.08
2019-03-16T02:57:05.607Z,99133.28
2019-03-16T02:57:36.799Z,99129.74
2019-03-16T02:58:08.006Z,99135.34
2019-03-16T02:58:39.211Z,99133.28
2019-03-16T02:59:10.421Z,99128.98
2019-03-16T02:59:41.625Z,99130.36
2019-03-16T03:00:12.860Z,99129.52
2019-03-16T03:00:44.119Z,99133.86
2019-03-16T03:01:15.312Z,99130.02
2019-03-16T03:01:46.550Z,99120.98
2019-03-16T03:02:17.735Z,99130.59
2019-03-16T03:02:48.983Z,99136.30
2019-03-16T03:03:29.277Z,99122.97
2019-03-16T03:03:53.120Z,99129.91
2019-03-16T03:04:24.327Z,99130.78
2019-03-16T03:04:55.516Z,99131.30
2019-03-16T03:05:26.716Z,99135.61
2019-03-16T03:05:58.046Z,99131.80
2019-03-16T03:06:30.170Z,99133.59
2019-03-16T03:07:01.368Z,99132.78
2019-03-16T03:07:32.566Z,99136.67
2019-03-16T03:08:03.844Z,99134.08
2019-03-16T03:08:35.020Z,99135.80
2019-03-16T03:09:06.217Z,99135.41
2019-03-16T03:09:37.395Z,99137.55
2019-03-16T03:10:08.597Z,99139.71
2019-03-16T03:10:39.793Z,99138.00
2019-03-16T03:11:10.991Z,99142.34
2019-03-16T03:11:42.202Z,99144.47
2019-03-16T03:12:13.384Z,99142.79
2019-03-16T03:12:44.626Z,99139.36
2019-03-16T03:13:15.859Z,99144.12
2019-03-16T03:13:47.066Z,99137.09
2019-03-16T03:14:18.259Z,99138.77
2019-03-16T03:14:49.448Z,99137.81
2019-03-16T03:15:20.651Z,99142.96
2019-03-16T03:15:51.843Z,99140.33
2019-03-16T03:16:23.039Z,99144.64
2019-03-16T03:16:54.246Z,99146.80
2019-03-16T03:17:25.487Z,99140.33
2019-03-16T03:17:56.671Z,99139.91
2019-03-16T03:18:27.918Z,99141.66
2019-03-16T03:18:59.107Z,99140.75
2019-03-16T03:19:30.341Z,99140.75
2019-03-16T03:20:01.545Z,99137.78
2019-03-16T03:20:32.743Z,99138.66
2019-03-16T03:21:03.934Z,99139.95
2019-03-16T03:21:35.121Z,99141.25
2019-03-16T03:22:06.364Z,99139.53
2019-03-16T03:22:37.573Z,99138.66
2019-03-16T03:23:08.769Z,99142.96
2019-03-16T03:23:39.966Z,99148.94
2019-03-16T03:24:11.170Z,99141.97
2019-03-16T03:24:44.604Z,99140.75
2019-03-16T03:25:15.345Z,99143.77
2019-03-16T03:25:46.574Z,99139.00
2019-03-16T03:26:17.782Z,99141.63
2019-03-16T03:26:48.979Z,99136.87
2019-03-16T03:27:20.171Z,99138.55
2019-03-16T03:27:51.383Z,99137.25
2019-03-16T03:28:22.588Z,99142.13
2019-03-16T03:28:53.782Z,99137.02
2019-03-16T03:29:24.978Z,99138.77
2019-03-16T03:29:57.519Z,99138.00
2019-03-16T03:30:29.108Z,99135.41
2019-03-16T03:31:00.287Z,99142.41
2019-03-16T03:31:31.517Z,99138.98
2019-03-16T03:32:02.708Z,99134.22
2019-03-16T03:32:33.900Z,99140.31
2019-03-16T03:33:05.124Z,99139.92
2019-03-16T03:33:57.863Z,99140.90
2019-03-16T03:34:09.252Z,99144.50
2019-03-16T03:34:40.466Z,99142.42
2019-03-16T03:35:11.681Z,99142.88
2019-03-16T03:35:42.885Z,99144.21
2019-03-16T03:36:14.077Z,99139.09
2019-03-16T03:36:45.288Z,99141.33
2019-03-16T03:37:16.525Z,99134.89
2019-03-16T03:37:47.738Z,99137.58
2019-03-16T03:38:18.935Z,99140.16
2019-03-16T03:38:50.121Z,99131.69
2019-03-16T03:39:21.316Z,99138.22
2019-03-16T03:39:52.510Z,99135.62
2019-03-16T03:40:23.713Z,99132.17
2019-03-16T03:40:54.925Z,99133.05
2019-03-16T03:41:26.119Z,99131.75
2019-03-16T03:41:57.322Z,99125.31
2019-03-16T03:42:28.569Z,99125.80
2019-03-16T03:42:59.771Z,99128.83
2019-03-16T03:43:30.984Z,99124.98
2019-03-16T03:44:02.574Z,99131.51
2019-03-16T03:44:33.776Z,99129.02
2019-03-16T03:45:04.985Z,99129.04
2019-03-16T03:45:36.182Z,99128.23
2019-03-16T03:46:07.367Z,99131.23
2019-03-16T03:46:38.609Z,99131.63
2019-03-16T03:47:09.814Z,99120.47
2019-03-16T03:47:41.016Z,99127.80
2019-03-16T03:48:12.375Z,99132.13
2019-03-16T03:48:43.588Z,99135.64
2019-03-16T03:49:14.783Z,99125.34
2019-03-16T03:49:46.018Z,99130.92
2019-03-16T03:50:17.231Z,99132.73
2019-03-16T03:50:48.431Z,99137.92
2019-03-16T03:51:19.634Z,99132.78
2019-03-16T03:51:50.837Z,99135.36
2019-03-16T03:52:22.037Z,99132.78
2019-03-16T03:52:53.258Z,99132.28
2019-03-16T03:53:24.494Z,99128.38
2019-03-16T03:53:55.696Z,99130.95
2019-03-16T03:54:26.902Z,99134.41
2019-03-16T03:54:58.111Z,99133.17
2019-03-16T03:55:29.314Z,99141.38
2019-03-16T03:56:00.523Z,99141.42
2019-03-16T03:56:31.730Z,99139.74
2019-03-16T03:57:02.927Z,99141.93
2019-03-16T03:57:34.162Z,99141.98
2019-03-16T03:58:05.380Z,99142.03
2019-03-16T03:58:36.563Z,99144.23
2019-03-16T03:59:07.768Z,99144.25
2019-03-16T03:59:39.014Z,99143.38
2019-03-16T04:00:10.220Z,99139.98
2019-03-16T04:00:41.444Z,99143.83
2019-03-16T04:01:12.647Z,99143.36
2019-03-16T04:01:43.845Z,99152.84
2019-03-16T04:02:15.081Z,99141.63
2019-03-16T04:02:46.281Z,99141.56
2019-03-16T04:03:17.485Z,99141.52
2019-03-16T04:03:48.688Z,99142.78
2019-03-16T04:04:19.885Z,99139.75
2019-03-16T04:04:51.093Z,99143.62
2019-03-16T04:05:22.298Z,99140.13
2019-03-16T04:05:53.507Z,99144.49
2019-03-16T04:06:24.700Z,99136.77
2019-03-16T04:06:55.891Z,99141.48
2019-03-16T04:07:27.132Z,99141.52
2019-03-16T04:07:58.339Z,99138.48
2019-03-16T04:08:29.566Z,99146.23
2019-03-16T04:09:00.815Z,99147.50
2019-03-16T04:09:32.029Z,99142.30
2019-03-16T04:10:03.226Z,99146.57
2019-03-16T04:10:34.423Z,99141.41
2019-03-16T04:11:05.624Z,99140.11
2019-03-16T04:11:36.817Z,99143.12
2019-03-16T04:12:08.015Z,99145.63
2019-03-16T04:12:39.218Z,99144.25
2019-03-16T04:13:10.450Z,99145.03
2019-03-16T04:13:41.633Z,99141.97
2019-03-16T04:14:12.877Z,99143.68
2019-03-16T04:14:44.091Z,99144.10
2019-03-16T04:15:15.283Z,99149.70
2019-03-16T04:15:46.488Z,99147.53
2019-03-16T04:16:17.713Z,99147.89
2019-03-16T04:16:48.911Z,99151.27
2019-03-16T04:17:20.124Z,99152.95
2019-03-16T04:17:51.309Z,99151.15
2019-03-16T04:18:22.506Z,99152.41
2019-03-16T04:18:53.709Z,99151.95
2019-03-16T04:19:25.010Z,99148.86
2019-03-16T04:19:56.245Z,99150.97
2019-03-16T04:20:27.461Z,99156.11
2019-03-16T04:20:58.660Z,99153.16
2019-03-16T04:21:29.858Z,99151.86
2019-03-16T04:22:01.061Z,99157.04
2019-03-16T04:22:32.259Z,99150.57
2019-03-16T04:23:03.476Z,99155.72
2019-03-16T04:23:34.690Z,99151.32
2019-03-16T04:24:05.884Z,99153.45
2019-03-16T04:24:37.141Z,99151.29
2019-03-16T04:25:09.794Z,99153.01
2019-03-16T04:25:40.991Z,99156.50
2019-03-16T04:26:12.226Z,99152.20
2019-03-16T04:26:43.421Z,99148.28
2019-03-16T04:27:16.616Z,99147.83
2019-03-16T04:27:47.550Z,99155.14
2019-03-16T04:28:18.776Z,99148.19
2019-03-16T04:28:49.978Z,99148.09
2019-03-16T04:29:21.177Z,99141.17
2019-03-16T04:29:52.439Z,99149.74
2019-03-16T04:30:23.640Z,99144.95
2019-03-16T04:30:54.839Z,99146.22
2019-03-16T04:31:26.051Z,99151.88
2019-03-16T04:31:57.329Z,99143.72
2019-03-16T04:32:28.544Z,99143.75
2019-03-16T04:32:59.776Z,99142.47
2019-03-16T04:33:30.968Z,99137.73
2019-03-16T04:34:02.167Z,99137.29
2019-03-16T04:34:33.370Z,99145.05
2019-03-16T04:35:04.617Z,99141.17
2019-03-16T04:35:35.807Z,99132.56
2019-03-16T04:36:07.041Z,99134.28
2019-03-16T04:36:38.253Z,99132.53
2019-03-16T04:37:09.450Z,99133.76
2019-03-16T04:37:40.646Z,99135.05
2019-03-16T04:38:11.961Z,99129.81
2019-03-16T04:38:43.116Z,99128.83
2019-03-16T04:39:14.329Z,99124.04
2019-03-16T04:39:45.524Z,99126.20
2019-03-16T04:40:16.784Z,99119.73
2019-03-16T04:40:47.979Z,99120.16
2019-03-16T04:41:19.187Z,99118.41
2019-03-16T04:41:50.383Z,99120.16
2019-03-16T04:42:21.589Z,99121.07
2019-03-16T04:42:52.795Z,99119.36
2019-03-16T04:43:24.002Z,99114.63
2019-03-16T04:43:56.169Z,99118.41
2019-03-16T04:44:27.377Z,99116.97
2019-03-16T04:44:58.595Z,99115.46
2019-03-16T04:45:29.853Z,99109.19
2019-03-16T04:46:01.132Z,99105.06
2019-03-16T04:46:32.335Z,99095.80
2019-03-16T04:47:03.545Z,99100.33
2019-03-16T04:47:34.792Z,99097.86
2019-03-16T04:48:05.988Z,99092.42
2019-03-16T04:48:37.209Z,99093.87
2019-03-16T04:49:08.482Z,99092.91
2019-03-16T04:49:39.685Z,99088.05
2019-03-16T04:50:10.893Z,99092.59
2019-03-16T04:50:42.090Z,99094.03
2019-03-16T04:51:13.284Z,99099.87
2019-03-16T04:51:44.495Z,99091.00
2019-03-16T04:52:15.706Z,99095.90
2019-03-16T04:52:46.942Z,99096.13
2019-03-16T04:53:18.139Z,99090.36
2019-03-16T04:53:49.335Z,99090.17
2019-03-16T04:54:20.527Z,99085.34
2019-03-16T04:54:51.737Z,99083.16
2019-03-16T04:55:22.951Z,99078.08
2019-03-16T04:55:54.192Z,99073.97
2019-03-16T04:56:25.396Z,99076.34
2019-03-16T04:56:56.598Z,99068.25
2019-03-16T04:57:27.803Z,99070.61
2019-03-16T04:57:59.017Z,99067.42
2019-03-16T04:58:30.220Z,99069.34
2019-03-16T04:59:01.443Z,99072.91
2019-03-16T04:59:32.675Z,99072.91
2019-03-16T05:00:03.892Z,99067.44
2019-03-16T05:00:35.091Z,99073.14
2019-03-16T05:01:06.289Z,99077.11
2019-03-16T05:01:37.490Z,99074.61
2019-03-16T05:02:08.687Z,99075.55
2019-03-16T05:02:39.948Z,99079.11
2019-03-16T05:03:11.154Z,99078.31
2019-03-16T05:03:42.350Z,99078.32
2019-03-16T05:04:13.549Z,99077.06
2019-03-16T05:04:44.737Z,99069.70
2019-03-16T05:05:15.936Z,99072.43
2019-03-16T05:05:47.144Z,99070.25
2019-03-16T05:06:18.372Z,99073.31
2019-03-16T05:06:49.568Z,99068.54
2019-03-16T05:07:20.788Z,99072.43
2019-03-16T05:07:52.036Z,99074.55
2019-03-16T05:08:23.226Z,99070.63
2019-03-16T05:08:54.461Z,99077.06
2019-03-16T05:09:26.759Z,99071.46
2019-03-16T05:09:57.952Z,99074.55
2019-03-16T05:10:29.193Z,99079.79
2019-03-16T05:11:00.401Z,99080.20
2019-03-16T05:11:31.599Z,99080.58
2019-03-16T05:12:02.818Z,99076.73
2019-03-16T05:12:34.057Z,99082.80
2019-03-16T05:13:05.269Z,99083.30
2019-03-16T05:13:36.470Z,99078.58
2019-03-16T05:14:07.675Z,99085.44
2019-03-16T05:14:38.912Z,99081.17
2019-03-16T05:15:10.114Z,99081.09
2019-03-16T05:15:41.316Z,99086.69
2019-03-16T05:16:12.512Z,99086.73
2019-03-16T05:16:43.792Z,99082.84
2019-03-16T05:17:14.991Z,99092.34
2019-03-16T05:17:46.251Z,99091.45
2019-03-16T05:18:17.442Z,99099.19
2019-03-16T05:18:48.652Z,99094.47
2019-03-16T05:19:19.873Z,99104.00
2019-03-16T05:19:51.081Z,99108.39
2019-03-16T05:20:22.290Z,99110.56
2019-03-16T05:20:53.488Z,99110.11
2019-03-16T05:21:24.762Z,99108.85
2019-03-16T05:21:55.956Z,99110.20
2019-03-16T05:22:27.161Z,99117.47
2019-03-16T05:22:58.360Z,99110.56
2019-03-16T05:23:29.585Z,99111.86
2019-03-16T05:24:02.836Z,99111.82
2019-03-16T05:24:33.734Z,99113.03
2019-03-16T05:25:04.946Z,99108.22
2019-03-16T05:25:36.141Z,99107.72
2019-03-16T05:26:07.352Z,99106.84
2019-03-16T05:26:38.595Z,99101.14
2019-03-16T05:27:09.799Z,99101.56
2019-03-16T05:27:41.007Z,99104.11
2019-03-16T05:28:12.274Z,99101.89
2019-03-16T05:28:43.489Z,99103.19
2019-03-16T05:29:14.701Z,99107.83
2019-03-16T05:29:45.893Z,99103.10
2019-03-16T05:30:17.092Z,99107.36
2019-03-16T05:30:48.285Z,99102.17
2019-03-16T05:31:19.490Z,99104.77
2019-03-16T05:31:50.943Z,99109.08
2019-03-16T05:32:22.177Z,99112.00
2019-03-16T05:32:53.389Z,99115.84
2019-03-16T05:33:24.633Z,99112.41
2019-03-16T05:33:55.833Z,99110.23
2019-03-16T05:34:27.028Z,99105.46
2019-03-16T05:34:58.238Z,99108.02
2019-03-16T05:35:29.446Z,99111.35
2019-03-16T05:36:00.635Z,99105.70
2019-03-16T05:36:31.854Z,99107.83
2019-03-16T05:37:03.079Z,99108.66
2019-03-16T05:37:34.784Z,99109.03
2019-03-16T05:38:05.999Z,99112.88
2019-03-16T05:38:37.227Z,99113.77
2019-03-16T05:39:08.425Z,99113.71
2019-03-16T05:39:39.612Z,99112.74
2019-03-16T05:40:10.759Z,99112.69
2019-03-16T05:40:41.910Z,99109.55
2019-03-16T05:41:13.063Z,99115.98
2019-03-16T05:41:44.238Z,99108.98
2019-03-16T05:42:15.400Z,99113.66
2019-03-16T05:42:46.602Z,99117.96
2019-03-16T05:43:17.761Z,99116.72
2019-03-16T05:43:48.953Z,99115.88
2019-03-16T05:44:20.088Z,99117.97
2019-03-16T05:44:51.246Z,99119.27
2019-03-16T05:45:22.415Z,99114.44
2019-03-16T05:45:53.572Z,99114.30
2019-03-16T05:46:24.736Z,99114.67
2019-03-16T05:46:55.898Z,99119.91
2019-03-16T05:47:27.055Z,99113.31
2019-03-16T05:47:58.279Z,99119.81
2019-03-16T05:48:29.444Z,99112.34
2019-03-16T05:49:00.594Z,99119.61
2019-03-16T05:49:31.753Z,99111.30
2019-03-16T05:50:02.942Z,99112.97
2019-03-16T05:50:34.149Z,99113.34
2019-03-16T05:51:05.306Z,99110.73
2019-03-16T05:51:36.499Z,99116.04
2019-03-16T05:52:07.632Z,99110.06
2019-03-16T05:52:38.798Z,99112.02
2019-03-16T05:53:09.955Z,99094.05
2019-03-16T05:53:41.112Z,99112.02
2019-03-16T05:54:12.261Z,99111.93
2019-03-16T05:54:43.420Z,99118.83
2019-03-16T05:55:14.568Z,99117.11
2019-03-16T05:55:45.773Z,99123.61
2019-03-16T05:56:16.935Z,99118.69
2019-03-16T05:56:48.087Z,99116.09
2019-03-16T05:57:19.241Z,99118.83
2019-03-16T05:57:50.391Z,99123.61
2019-03-16T05:58:21.566Z,99116.18
2019-03-16T05:58:52.713Z,99118.27
2019-03-16T05:59:23.877Z,99118.64
2019-03-16T05:59:55.066Z,99118.36
2019-03-16T06:00:26.216Z,99114.89
2019-03-16T06:00:57.434Z,99115.67
2019-03-16T06:01:28.595Z,99120.30
2019-03-16T06:01:59.770Z,99121.07
2019-03-16T06:02:30.931Z,99122.27
2019-03-16T06:03:02.093Z,99124.75
2019-03-16T06:03:33.269Z,99121.68
2019-03-16T06:04:04.507Z,99125.95
2019-03-16T06:04:35.662Z,99131.16
2019-03-16T06:05:11.102Z,99128.45
2019-03-16T06:05:39.715Z,99130.06
2019-03-16T06:06:11.881Z,99124.39
2019-03-16T06:06:43.039Z,99123.14
2019-03-16T06:07:14.222Z,99121.27